sensor_id;sensor_type;location;lat;lon;timestamp;pressure;altitude;pressure_sealevel;temperature;humidity
25650;BME280;13505;45.196;5.696;2024-01-06T05:34:10;98150.09;;;6.79;100.00
25650;BME280;13505;45.196;5.696;2024-01-06T05:39:01;98159.16;;;6.72;100.00
25650;BME280;13505;45.196;5.696;2024-01-06T05:43:52;98166.03;;;6.74;100.00
25650;BME280;13505;45.196;5.696;2024-01-06T05:48:42;98161.28;;;6.63;100.00
25650;BME280;13505;45.196;5.696;2024-01-06T05:53:33;98163.47;;;6.73;100.00
25650;BME280;13505;45.196;5.696;2024-01-06T05:58:23;98167.53;;;6.61;100.00
25650;BME280;13505;45.196;5.696;2024-01-06T06:03:13;98179.34;;;6.69;100.00
25650;BME280;13505;45.196;5.696;2024-01-06T06:08:04;98187.28;;;6.68;100.00
25650;BME280;13505;45.196;5.696;2024-01-06T06:12:55;98190.19;;;6.62;100.00
25650;BME280;13505;45.196;5.696;2024-01-06T06:17:45;98189.97;;;6.66;100.00
25650;BME280;13505;45.196;5.696;2024-01-06T06:22:36;98183.88;;;6.47;100.00
25650;BME280;13505;45.196;5.696;2024-01-06T06:27:27;98186.19;;;6.53;100.00
25650;BME280;13505;45.196;5.696;2024-01-06T06:32:17;98201.44;;;6.64;100.00
25650;BME280;13505;45.196;5.696;2024-01-06T06:37:08;98195.28;;;6.46;100.00
25650;BME280;13505;45.196;5.696;2024-01-06T06:41:58;98202.72;;;6.55;100.00
25650;BME280;13505;45.196;5.696;2024-01-06T06:46:48;98206.47;;;6.49;100.00
25650;BME280;13505;45.196;5.696;2024-01-06T06:51:39;98218.47;;;6.34;100.00
25650;BME280;13505;45.196;5.696;2024-01-06T06:56:36;98222.88;;;6.13;100.00
25650;BME280;13505;45.196;5.696;2024-01-06T07:01:26;98224.38;;;6.19;100.00
25650;BME280;13505;45.196;5.696;2024-01-06T07:06:17;98229.00;;;6.33;100.00
25650;BME280;13505;45.196;5.696;2024-01-06T07:11:08;98236.47;;;6.21;100.00
25650;BME280;13505;45.196;5.696;2024-01-06T07:15:58;98250.69;;;6.36;100.00
25650;BME280;13505;45.196;5.696;2024-01-06T07:20:49;98246.81;;;6.45;100.00
25650;BME280;13505;45.196;5.696;2024-01-06T07:25:39;98250.22;;;6.26;100.00
25650;BME280;13505;45.196;5.696;2024-01-06T07:30:29;98249.19;;;6.31;100.00
25650;BME280;13505;45.196;5.696;2024-01-06T07:35:20;98248.22;;;6.33;100.00
25650;BME280;13505;45.196;5.696;2024-01-06T07:40:11;98252.13;;;6.44;100.00
25650;BME280;13505;45.196;5.696;2024-01-06T07:45:03;98257.81;;;6.33;100.00
25650;BME280;13505;45.196;5.696;2024-01-06T07:49:53;98255.91;;;6.36;100.00
25650;BME280;13505;45.196;5.696;2024-01-06T07:54:44;98267.47;;;6.32;100.00
25650;BME280;13505;45.196;5.696;2024-01-06T07:59:35;98265.28;;;6.42;100.00
25650;BME280;13505;45.196;5.696;2024-01-06T08:04:25;98259.72;;;6.29;100.00
25650;BME280;13505;45.196;5.696;2024-01-06T08:09:15;98260.88;;;6.42;100.00
25650;BME280;13505;45.196;5.696;2024-01-06T08:14:06;98263.84;;;6.35;100.00
25650;BME280;13505;45.196;5.696;2024-01-06T08:18:56;98259.50;;;6.34;100.00
25650;BME280;13505;45.196;5.696;2024-01-06T08:23:46;98271.25;;;6.46;100.00
25650;BME280;13505;45.196;5.696;2024-01-06T08:28:37;98270.84;;;6.55;100.00
25650;BME280;13505;45.196;5.696;2024-01-06T08:33:27;98277.31;;;6.46;100.00
25650;BME280;13505;45.196;5.696;2024-01-06T08:38:18;98282.69;;;6.43;100.00
25650;BME280;13505;45.196;5.696;2024-01-06T08:43:09;98294.81;;;6.46;100.00
25650;BME280;13505;45.196;5.696;2024-01-06T08:47:59;98310.53;;;6.66;100.00
25650;BME280;13505;45.196;5.696;2024-01-06T08:52:50;98303.69;;;6.62;100.00
25650;BME280;13505;45.196;5.696;2024-01-06T08:57:40;98309.41;;;6.72;100.00
25650;BME280;13505;45.196;5.696;2024-01-06T09:02:30;98313.75;;;6.52;100.00
25650;BME280;13505;45.196;5.696;2024-01-06T09:07:21;98328.88;;;6.66;100.00
25650;BME280;13505;45.196;5.696;2024-01-06T09:12:11;98326.16;;;6.68;100.00
25650;BME280;13505;45.196;5.696;2024-01-06T09:17:01;98334.88;;;6.68;100.00
25650;BME280;13505;45.196;5.696;2024-01-06T09:21:52;98330.44;;;6.70;100.00
25650;BME280;13505;45.196;5.696;2024-01-06T09:26:42;98340.28;;;6.65;100.00
25650;BME280;13505;45.196;5.696;2024-01-06T09:31:34;98355.81;;;6.70;100.00
25650;BME280;13505;45.196;5.696;2024-01-06T09:36:24;98359.25;;;6.50;100.00
25650;BME280;13505;45.196;5.696;2024-01-06T09:41:16;98351.94;;;6.58;100.00
25650;BME280;13505;45.196;5.696;2024-01-06T09:46:28;98353.97;;;6.72;100.00
25650;BME280;13505;45.196;5.696;2024-01-06T09:51:22;98359.06;;;6.75;100.00
25650;BME280;13505;45.196;5.696;2024-01-06T09:56:14;98370.84;;;6.65;100.00
25650;BME280;13505;45.196;5.696;2024-01-06T10:01:05;98361.44;;;6.81;100.00
25650;BME280;13505;45.196;5.696;2024-01-06T10:05:58;98374.66;;;6.78;100.00
25650;BME280;13505;45.196;5.696;2024-01-06T10:11:09;98372.31;;;6.51;100.00
25650;BME280;13505;45.196;5.696;2024-01-06T10:16:00;98371.31;;;6.54;100.00
25650;BME280;13505;45.196;5.696;2024-01-06T10:21:13;98361.53;;;6.57;100.00
25650;BME280;13505;45.196;5.696;2024-01-06T10:26:07;98359.53;;;6.64;100.00
25650;BME280;13505;45.196;5.696;2024-01-06T10:30:58;98373.66;;;6.39;100.00
25650;BME280;13505;45.196;5.696;2024-01-06T10:35:49;98363.03;;;6.63;100.00
25650;BME280;13505;45.196;5.696;2024-01-06T10:40:40;98372.88;;;6.15;100.00
25650;BME280;13505;45.196;5.696;2024-01-06T10:45:30;98367.50;;;6.40;100.00
25650;BME280;13505;45.196;5.696;2024-01-06T10:50:21;98370.59;;;6.50;100.00
25650;BME280;13505;45.196;5.696;2024-01-06T10:55:12;98366.69;;;6.61;100.00
25650;BME280;13505;45.196;5.696;2024-01-06T11:00:22;98365.75;;;6.62;100.00
25650;BME280;13505;45.196;5.696;2024-01-06T11:05:13;98365.63;;;6.65;100.00
25650;BME280;13505;45.196;5.696;2024-01-06T11:10:11;98336.59;;;6.69;100.00
25650;BME280;13505;45.196;5.696;2024-01-06T11:15:02;98346.16;;;6.70;100.00
25650;BME280;13505;45.196;5.696;2024-01-06T11:20:12;98351.34;;;6.51;100.00
25650;BME280;13505;45.196;5.696;2024-01-06T11:25:05;98359.34;;;6.48;100.00
25650;BME280;13505;45.196;5.696;2024-01-06T11:30:02;98352.50;;;6.44;100.00
25650;BME280;13505;45.196;5.696;2024-01-06T11:35:06;98345.91;;;6.56;99.42
25650;BME280;13505;45.196;5.696;2024-01-06T11:39:58;98341.97;;;6.66;99.12
25650;BME280;13505;45.196;5.696;2024-01-06T11:44:51;98327.22;;;6.64;98.13
25650;BME280;13505;45.196;5.696;2024-01-06T11:49:44;98336.25;;;6.77;98.25
25650;BME280;13505;45.196;5.696;2024-01-06T11:54:55;98321.38;;;6.78;97.65
25650;BME280;13505;45.196;5.696;2024-01-06T11:59:46;98328.97;;;6.63;98.46
25650;BME280;13505;45.196;5.696;2024-01-06T12:04:37;98322.88;;;6.83;98.35
25650;BME280;13505;45.196;5.696;2024-01-06T12:09:27;98322.63;;;6.69;99.39
25650;BME280;13505;45.196;5.696;2024-01-06T12:14:17;98324.25;;;6.72;98.81
25650;BME280;13505;45.196;5.696;2024-01-06T12:19:08;98306.50;;;6.57;98.04
25650;BME280;13505;45.196;5.696;2024-01-06T12:24:16;98309.41;;;6.31;96.28
25650;BME280;13505;45.196;5.696;2024-01-06T12:29:13;98299.31;;;6.63;96.38
25650;BME280;13505;45.196;5.696;2024-01-06T12:34:03;98301.66;;;6.69;95.88
25650;BME280;13505;45.196;5.696;2024-01-06T12:38:54;98299.69;;;6.74;96.91
25650;BME280;13505;45.196;5.696;2024-01-06T12:43:46;98294.19;;;6.80;96.82
25650;BME280;13505;45.196;5.696;2024-01-06T12:48:37;98297.50;;;6.84;95.08
25650;BME280;13505;45.196;5.696;2024-01-06T12:53:27;98285.22;;;6.86;95.47
25650;BME280;13505;45.196;5.696;2024-01-06T12:58:17;98282.59;;;6.86;94.85
25650;BME280;13505;45.196;5.696;2024-01-06T13:03:08;98289.84;;;6.79;95.78
25650;BME280;13505;45.196;5.696;2024-01-06T13:07:59;98296.75;;;6.61;96.28
25650;BME280;13505;45.196;5.696;2024-01-06T13:12:52;98300.69;;;6.72;96.81
25650;BME280;13505;45.196;5.696;2024-01-06T13:17:42;98299.44;;;6.80;95.16
25650;BME280;13505;45.196;5.696;2024-01-06T13:22:33;98300.25;;;6.62;95.16
25650;BME280;13505;45.196;5.696;2024-01-06T13:27:23;98292.53;;;6.38;95.17
25650;BME280;13505;45.196;5.696;2024-01-06T13:32:13;98294.09;;;6.63;94.35
25650;BME280;13505;45.196;5.696;2024-01-06T13:37:05;98303.31;;;6.72;95.75
25650;BME280;13505;45.196;5.696;2024-01-06T13:41:57;98307.38;;;6.58;95.66
25650;BME280;13505;45.196;5.696;2024-01-06T13:46:47;98312.75;;;6.34;94.94
25650;BME280;13505;45.196;5.696;2024-01-06T13:51:40;98312.50;;;6.40;95.62
25650;BME280;13505;45.196;5.696;2024-01-06T13:56:31;98316.09;;;6.59;94.18
25650;BME280;13505;45.196;5.696;2024-01-06T14:01:21;98309.94;;;6.60;93.93
25650;BME280;13505;45.196;5.696;2024-01-06T14:06:13;98318.25;;;6.69;92.85
25650;BME280;13505;45.196;5.696;2024-01-06T14:11:04;98324.59;;;6.64;93.88
25650;BME280;13505;45.196;5.696;2024-01-06T14:15:55;98322.03;;;6.41;93.77
25650;BME280;13505;45.196;5.696;2024-01-06T14:20:47;98323.53;;;6.68;93.90
25650;BME280;13505;45.196;5.696;2024-01-06T14:25:41;98329.59;;;6.28;92.08
25650;BME280;13505;45.196;5.696;2024-01-06T14:30:31;98338.81;;;6.58;92.13
25650;BME280;13505;45.196;5.696;2024-01-06T14:35:22;98330.56;;;6.67;90.98
25650;BME280;13505;45.196;5.696;2024-01-06T14:40:13;98329.84;;;6.64;89.95
25650;BME280;13505;45.196;5.696;2024-01-06T14:45:03;98334.69;;;6.73;89.85
25650;BME280;13505;45.196;5.696;2024-01-06T14:49:54;98328.59;;;6.73;90.94
25650;BME280;13505;45.196;5.696;2024-01-06T14:54:44;98344.06;;;6.58;91.16
25650;BME280;13505;45.196;5.696;2024-01-06T14:59:34;98354.19;;;6.24;93.25
25650;BME280;13505;45.196;5.696;2024-01-06T15:04:27;98359.91;;;6.34;93.29
25650;BME280;13505;45.196;5.696;2024-01-06T15:09:17;98353.00;;;6.54;93.49
25650;BME280;13505;45.196;5.696;2024-01-06T15:14:07;98353.28;;;6.46;93.88
25650;BME280;13505;45.196;5.696;2024-01-06T15:18:59;98368.19;;;6.46;91.91
25650;BME280;13505;45.196;5.696;2024-01-06T15:23:50;98376.28;;;6.39;93.29
25650;BME280;13505;45.196;5.696;2024-01-06T15:28:40;98372.69;;;6.42;91.82
25650;BME280;13505;45.196;5.696;2024-01-06T15:33:31;98373.97;;;6.32;92.26
25650;BME280;13505;45.196;5.696;2024-01-06T15:38:21;98379.56;;;6.45;91.13
25650;BME280;13505;45.196;5.696;2024-01-06T15:43:11;98389.91;;;6.48;91.80
25650;BME280;13505;45.196;5.696;2024-01-06T15:48:02;98378.44;;;6.07;94.26
25650;BME280;13505;45.196;5.696;2024-01-06T15:52:52;98375.34;;;6.40;93.30
25650;BME280;13505;45.196;5.696;2024-01-06T15:57:43;98382.81;;;6.29;91.89
25650;BME280;13505;45.196;5.696;2024-01-06T16:02:34;98377.00;;;6.43;92.05
25650;BME280;13505;45.196;5.696;2024-01-06T16:07:24;98377.00;;;6.43;91.08
25650;BME280;13505;45.196;5.696;2024-01-06T16:12:15;98380.41;;;6.45;91.82
25650;BME280;13505;45.196;5.696;2024-01-06T16:17:06;98382.97;;;6.47;90.90
25650;BME280;13505;45.196;5.696;2024-01-06T16:21:58;98383.31;;;6.39;91.23
25650;BME280;13505;45.196;5.696;2024-01-06T16:26:50;98378.31;;;6.33;89.42
25650;BME280;13505;45.196;5.696;2024-01-06T16:31:40;98388.13;;;6.27;89.08
25650;BME280;13505;45.196;5.696;2024-01-06T16:36:30;98394.63;;;6.39;89.78
25650;BME280;13505;45.196;5.696;2024-01-06T16:41:21;98392.19;;;6.35;89.45
25650;BME280;13505;45.196;5.696;2024-01-06T16:46:16;98392.59;;;6.46;88.68
25650;BME280;13505;45.196;5.696;2024-01-06T16:51:06;98408.50;;;6.41;87.54
25650;BME280;13505;45.196;5.696;2024-01-06T16:55:59;98405.81;;;6.43;87.74
25650;BME280;13505;45.196;5.696;2024-01-06T17:00:49;98412.91;;;6.41;86.63
25650;BME280;13505;45.196;5.696;2024-01-06T17:05:39;98408.63;;;6.38;85.56
25650;BME280;13505;45.196;5.696;2024-01-06T17:10:30;98418.19;;;6.39;84.82
25650;BME280;13505;45.196;5.696;2024-01-06T17:15:20;98424.41;;;6.37;84.61
25650;BME280;13505;45.196;5.696;2024-01-06T17:20:14;98432.69;;;6.48;84.78
25650;BME280;13505;45.196;5.696;2024-01-06T17:25:05;98440.06;;;6.38;84.80
25650;BME280;13505;45.196;5.696;2024-01-06T17:29:58;98436.72;;;6.35;84.21
25650;BME280;13505;45.196;5.696;2024-01-06T17:34:48;98443.38;;;6.44;83.68
25650;BME280;13505;45.196;5.696;2024-01-06T17:39:39;98434.63;;;6.43;82.53
25650;BME280;13505;45.196;5.696;2024-01-06T17:44:30;98440.66;;;6.45;83.06
25650;BME280;13505;45.196;5.696;2024-01-06T17:49:20;98451.31;;;6.40;83.48
25650;BME280;13505;45.196;5.696;2024-01-06T17:54:11;98441.53;;;6.46;82.90
25650;BME280;13505;45.196;5.696;2024-01-06T17:59:01;98446.94;;;6.41;83.54
25650;BME280;13505;45.196;5.696;2024-01-06T18:03:52;98448.88;;;6.36;83.99
25650;BME280;13505;45.196;5.696;2024-01-06T18:08:43;98440.84;;;6.40;83.64
25650;BME280;13505;45.196;5.696;2024-01-06T18:13:35;98445.66;;;6.29;83.90
25650;BME280;13505;45.196;5.696;2024-01-06T18:18:26;98435.63;;;6.18;83.48
25650;BME280;13505;45.196;5.696;2024-01-06T18:23:16;98447.69;;;6.22;84.35
25650;BME280;13505;45.196;5.696;2024-01-06T18:28:07;98435.28;;;6.27;84.25
25650;BME280;13505;45.196;5.696;2024-01-06T18:32:59;98437.53;;;6.14;84.06
25650;BME280;13505;45.196;5.696;2024-01-06T18:37:49;98431.72;;;6.28;82.67
25650;BME280;13505;45.196;5.696;2024-01-06T18:42:40;98441.28;;;6.30;83.12
25650;BME280;13505;45.196;5.696;2024-01-06T18:47:30;98427.34;;;6.29;82.89
25650;BME280;13505;45.196;5.696;2024-01-06T18:52:21;98429.22;;;6.25;82.52
25650;BME280;13505;45.196;5.696;2024-01-06T18:57:11;98435.09;;;6.32;82.33
25650;BME280;13505;45.196;5.696;2024-01-06T19:02:04;98436.72;;;6.35;82.27
25650;BME280;13505;45.196;5.696;2024-01-06T19:06:56;98428.38;;;6.25;82.36
25650;BME280;13505;45.196;5.696;2024-01-06T19:11:47;98435.09;;;6.32;82.65
25650;BME280;13505;45.196;5.696;2024-01-06T19:16:37;98429.53;;;6.18;82.75
25650;BME280;13505;45.196;5.696;2024-01-06T19:21:28;98438.16;;;6.20;82.35
25650;BME280;13505;45.196;5.696;2024-01-06T19:26:18;98429.41;;;6.21;82.79
25650;BME280;13505;45.196;5.696;2024-01-06T19:31:09;98437.53;;;6.14;82.52
25650;BME280;13505;45.196;5.696;2024-01-06T19:35:59;98447.94;;;6.16;82.74
25650;BME280;13505;45.196;5.696;2024-01-06T19:40:50;98436.19;;;6.04;83.50
25650;BME280;13505;45.196;5.696;2024-01-06T19:45:42;98433.66;;;6.01;83.54
25650;BME280;13505;45.196;5.696;2024-01-06T19:50:32;98435.88;;;6.12;84.06
25650;BME280;13505;45.196;5.696;2024-01-06T19:55:22;98444.13;;;6.01;83.75
25650;BME280;13505;45.196;5.696;2024-01-06T20:00:13;98435.72;;;6.15;83.24
25650;BME280;13505;45.196;5.696;2024-01-06T20:05:04;98436.78;;;6.11;84.24
25650;BME280;13505;45.196;5.696;2024-01-06T20:09:56;98436.28;;;6.01;83.75
25650;BME280;13505;45.196;5.696;2024-01-06T20:14:47;98433.00;;;5.94;84.59
25650;BME280;13505;45.196;5.696;2024-01-06T20:19:37;98430.78;;;5.85;84.08
25650;BME280;13505;45.196;5.696;2024-01-06T20:24:28;98437.63;;;5.87;83.85
25650;BME280;13505;45.196;5.696;2024-01-06T20:29:18;98425.28;;;5.91;84.51
25650;BME280;13505;45.196;5.696;2024-01-06T20:34:09;98439.91;;;5.97;84.06
25650;BME280;13505;45.196;5.696;2024-01-06T20:38:59;98429.59;;;5.92;84.19
25650;BME280;13505;45.196;5.696;2024-01-06T20:43:49;98433.44;;;5.83;84.91
25650;BME280;13505;45.196;5.696;2024-01-06T20:48:40;98429.53;;;5.71;86.54
25650;BME280;13505;45.196;5.696;2024-01-06T20:53:33;98432.72;;;5.80;85.54
25650;BME280;13505;45.196;5.696;2024-01-06T20:58:26;98430.44;;;5.70;86.84
25650;BME280;13505;45.196;5.696;2024-01-06T21:03:16;98423.63;;;5.66;87.29
25650;BME280;13505;45.196;5.696;2024-01-06T21:08:06;98434.50;;;5.79;87.37
25650;BME280;13505;45.196;5.696;2024-01-06T21:12:57;98432.56;;;5.83;87.86
25650;BME280;13505;45.196;5.696;2024-01-06T21:17:47;98429.13;;;5.82;88.38
25650;BME280;13505;45.196;5.696;2024-01-06T21:22:37;98421.78;;;5.68;88.61
25650;BME280;13505;45.196;5.696;2024-01-06T21:27:28;98416.22;;;5.78;88.97
25650;BME280;13505;45.196;5.696;2024-01-06T21:32:18;98417.06;;;5.78;89.08
25650;BME280;13505;45.196;5.696;2024-01-06T21:37:08;98405.31;;;5.66;89.99
25650;BME280;13505;45.196;5.696;2024-01-06T21:41:59;98418.88;;;5.76;89.71
25650;BME280;13505;45.196;5.696;2024-01-06T21:46:50;98422.50;;;5.73;90.19
25650;BME280;13505;45.196;5.696;2024-01-06T21:51:51;98408.44;;;5.52;90.57
25650;BME280;13505;45.196;5.696;2024-01-06T21:56:44;98409.06;;;5.59;90.46
25650;BME280;13505;45.196;5.696;2024-01-06T22:01:38;98411.94;;;5.75;90.28
25650;BME280;13505;45.196;5.696;2024-01-06T22:06:34;98405.22;;;5.45;91.86
25650;BME280;13505;45.196;5.696;2024-01-06T22:11:25;98411.69;;;5.59;91.68
25650;BME280;13505;45.196;5.696;2024-01-06T22:16:15;98405.50;;;5.38;92.36
25650;BME280;13505;45.196;5.696;2024-01-06T22:21:06;98409.75;;;5.40;93.72
25650;BME280;13505;45.196;5.696;2024-01-06T22:25:57;98414.59;;;5.51;93.37
25650;BME280;13505;45.196;5.696;2024-01-06T22:30:47;98411.66;;;5.37;93.90
25650;BME280;13505;45.196;5.696;2024-01-06T22:35:37;98418.66;;;5.35;94.95
25650;BME280;13505;45.196;5.696;2024-01-06T22:40:28;98421.91;;;5.41;95.75
25650;BME280;13505;45.196;5.696;2024-01-06T22:45:18;98415.13;;;5.12;98.44
25650;BME280;13505;45.196;5.696;2024-01-06T22:50:09;98416.16;;;5.31;97.01
25650;BME280;13505;45.196;5.696;2024-01-06T22:55:00;98408.03;;;5.15;98.53
25650;BME280;13505;45.196;5.696;2024-01-06T22:59:50;98412.03;;;5.26;97.45
